East Jordan, MI

11:24 AM EST on February 25, 2017 (GMT -0500)
| | Change Station
Active Advisory: Winter Weather Advisory

Elev -9999 ft 0.00 °N, 0.00 °E | Updated 5 minutes ago

Snow
Snow
°F
Feels Like °F
N
Wind Variable Wind from North
Gusts mph

Today
High -- | Low -- °F
--% Chance of Precip.
Yesterday
High -- | Low -- °F
Precip. -- in
Pressure 29.54 in
Visibility 1.0 miles
Clouds Overcast 1500 ft
Dew Point Not available.
Humidity Not available.
Rainfall --
Snow Depth Not available.
7:25 AM 6:22 PM
Waning Crescent, 1% visible
METAR KCVX 251615Z AUTO 27021G25KT 1SM BR OVC015 M04/M05 A2954 RMK AO2 T10401055
Pressure 29.54 in
Visibility 1.0 miles
Clouds Overcast 1500 ft
Dew Point Not available.
Humidity Not available.
Rainfall --
Snow Depth Not available.
7:25 AM 6:22 PM
Waning Crescent, 1% visible
METAR KCVX 251615Z AUTO 27021G25KT 1SM BR OVC015 M04/M05 A2954 RMK AO2 T10401055

Get Your Daily Forecast Email!

Thanks for signing up!

Be on the lookout for a verification email in your inbox.

You'll start receiving the daily forecast at 8 AM.

×

10-Day Weather Forecast

Almanac

Astronomy

Feb. 25, 2017 Rise Set
Actual Time
Civil Twilight
Nautical Twilight
Astronomical Twilight
Moon
Length of Visible Light
Length of Day
Tomorrow will be .
, % of the Moon is Illuminated

Today's Extremes

State Highs State Lows

Community

WunderPhotos

Upload Photos

1,962,540 photos uploaded!

WunderBlog® & News

Nearby

Air Quality

  Air Quality AQ Index Pollutant
Not available.

Snow Depth

Station Depth Elevation

Earthquake Activity

City Distance Mag. Time & Date
Minimum magnitude displayed is 2.5.

Coastal Water Temperatures

Place Temperature

Stations

Nearby Weather Stations

Station Location Temp. Windchill Dew Point Humidity Wind Precip. Elev Updated Type
                   

Watches & Warnings

Winter Weather Advisory
Issued: 10:59 AM EST Feb. 25, 2017 – National Weather Service

... Winter Weather Advisory remains in effect until 7 PM EST this
evening...

* periods of snow showers, at times briefly heavy, will continue
to impact the area through this afternoon.

* The heaviest snowfall rates will occur through 4 PM.

* Additional snow accumulations of 1 to 2 inches is expected.

* Northwest winds gusting to 20 to 30 mph will produce areas of
blowing and drifting snow.

* Look for reduced visibilities at times.

* Combination of blowing and falling snow will result in
difficult travel conditions at times.

Precautionary/preparedness actions...

A Winter Weather Advisory means that periods of snow will cause
travel difficulties. Be prepared for slippery roads and limited
visibilities... and use caution while driving. For the latest Road
conditions... go to the mdot website at Michigan.Gov.